Time;durP1;ratioP1;P1;durP2;ratioP2;P2;SDS_P1;SDS_P2;PMS_P1;PMS_P2;Temp;Humidity;BMP_temperature;BMP_pressure;BME280_temperature;BME280_humidity;BME280_pressure;Samples;Min_cycle;Max_cycle;Signal;HPM_P1;HPM_P2
2021/11/20 00:01:36;;;;;;;49.08;21.38;;;;;;;;;;4975918;28;20092;-69
2021/11/20 00:04:01;;;;;;;43.75;22.30;;;;;;;;;;4976085;28;20471;-69
2021/11/20 00:06:28;;;;;;;54.90;22.52;;;;;;;;;;4974526;28;20030;-69
2021/11/20 00:08:54;;;;;;;45.10;21.42;;;;;;;;;;4973705;28;20031;-68
2021/11/20 00:11:21;;;;;;;46.63;21.67;;;;;;;;;;4976703;28;20031;-69
2021/11/20 00:13:48;;;;;;;45.97;23.50;;;;;;;;;;4975308;28;20057;-68
2021/11/20 00:16:14;;;;;;;47.28;21.63;;;;;;;;;;4979440;28;20021;-69
2021/11/20 00:18:39;;;;;;;44.35;23.00;;;;;;;;;;4975152;28;20022;-68
2021/11/20 00:21:06;;;;;;;51.63;24.00;;;;;;;;;;4978803;28;20527;-69
2021/11/20 00:23:34;;;;;;;48.47;23.67;;;;;;;;;;4978049;28;20030;-68
2021/11/20 00:26:00;;;;;;;43.05;22.35;;;;;;;;;;4974364;28;20027;-69
2021/11/20 00:28:31;;;;;;;41.72;22.55;;;;;;;;;;4973880;28;20027;-69
2021/11/20 00:30:59;;;;;;;46.15;21.33;;;;;;;;;;4977938;28;20025;-69
2021/11/20 00:33:25;;;;;;;45.58;23.25;;;;;;;;;;4978831;28;20025;-69
2021/11/20 00:35:52;;;;;;;46.10;22.50;;;;;;;;;;4975192;28;20031;-69
2021/11/20 00:38:18;;;;;;;44.75;22.85;;;;;;;;;;4975614;28;20427;-68
2021/11/20 00:40:45;;;;;;;45.53;22.63;;;;;;;;;;4978685;28;20025;-69
2021/11/20 00:43:11;;;;;;;41.92;21.77;;;;;;;;;;4972241;28;20238;-68
2021/11/20 00:45:36;;;;;;;46.80;21.73;;;;;;;;;;4975411;28;20033;-69
2021/11/20 00:48:01;;;;;;;43.97;22.20;;;;;;;;;;4973776;28;20042;-69
2021/11/20 00:50:27;;;;;;;52.20;24.88;;;;;;;;;;4976829;28;20183;-68
2021/11/20 00:52:52;;;;;;;54.40;23.77;;;;;;;;;;4978058;28;20524;-69
2021/11/20 00:55:20;;;;;;;52.72;24.90;;;;;;;;;;4975506;28;20022;-69
2021/11/20 00:57:45;;;;;;;48.90;24.17;;;;;;;;;;4977754;28;20479;-67
2021/11/20 01:00:11;;;;;;;47.17;21.65;;;;;;;;;;4975844;28;20037;-69
2021/11/20 01:02:37;;;;;;;57.08;24.80;;;;;;;;;;4975562;28;20621;-69
2021/11/20 01:05:04;;;;;;;57.38;24.70;;;;;;;;;;4980280;28;20027;-69
2021/11/20 01:07:29;;;;;;;59.08;27.38;;;;;;;;;;4978061;28;20403;-68
2021/11/20 01:09:54;;;;;;;57.38;25.48;;;;;;;;;;4974937;28;20023;-68
2021/11/20 01:12:22;;;;;;;51.90;22.98;;;;;;;;;;4981966;28;20026;-69
2021/11/20 01:14:48;;;;;;;43.13;22.30;;;;;;;;;;4978644;28;20069;-69
2021/11/20 01:17:13;;;;;;;45.17;22.50;;;;;;;;;;4976754;28;20018;-68
2021/11/20 01:19:39;;;;;;;46.15;21.10;;;;;;;;;;4980341;28;20395;-69
2021/11/20 01:22:06;;;;;;;48.22;22.30;;;;;;;;;;4974654;28;20113;-68
2021/11/20 01:24:31;;;;;;;42.50;22.90;;;;;;;;;;4978712;28;20063;-68
2021/11/20 01:26:56;;;;;;;58.65;26.08;;;;;;;;;;4978050;28;20069;-69
2021/11/20 01:29:22;;;;;;;52.80;24.58;;;;;;;;;;4979561;28;20023;-68
2021/11/20 01:31:49;;;;;;;54.15;24.42;;;;;;;;;;4976949;28;20027;-69
2021/11/20 01:34:15;;;;;;;54.15;23.77;;;;;;;;;;4974159;28;20049;-69
2021/11/20 01:36:41;;;;;;;46.58;23.77;;;;;;;;;;4977794;28;20065;-68
2021/11/20 01:39:11;;;;;;;48.70;22.77;;;;;;;;;;4987457;28;20054;-69
2021/11/20 01:41:37;;;;;;;47.13;21.58;;;;;;;;;;4980158;28;20023;-69
2021/11/20 01:44:14;;;;;;;59.50;23.65;;;;;;;;;;4978928;28;20030;-69
2021/11/20 01:46:41;;;;;;;44.38;22.88;;;;;;;;;;4978864;28;20077;-69
2021/11/20 01:49:06;;;;;;;48.17;21.88;;;;;;;;;;4976785;28;20019;-69
2021/11/20 01:51:37;;;;;;;54.13;22.33;;;;;;;;;;4990184;28;20805;-68
2021/11/20 01:54:15;;;;;;;51.70;23.05;;;;;;;;;;4989516;28;20304;-69
2021/11/20 01:56:40;;;;;;;56.90;24.80;;;;;;;;;;4978097;28;20029;-68
2021/11/20 01:59:08;;;;;;;62.10;24.40;;;;;;;;;;4977218;28;20361;-68
2021/11/20 02:01:37;;;;;;;52.60;24.02;;;;;;;;;;4977136;28;20053;-68
2021/11/20 02:04:05;;;;;;;58.15;26.25;;;;;;;;;;4978036;28;20026;-68
2021/11/20 02:06:43;;;;;;;66.65;27.75;;;;;;;;;;4978579;28;20031;-69
2021/11/20 02:09:11;;;;;;;55.85;26.70;;;;;;;;;;4977499;28;20042;-68
2021/11/20 02:11:42;;;;;;;55.10;27.83;;;;;;;;;;4982468;28;20608;-69
2021/11/20 02:14:08;;;;;;;70.32;30.42;;;;;;;;;;4995685;28;20438;-69
2021/11/20 02:16:36;;;;;;;66.78;30.60;;;;;;;;;;4979950;28;20114;-68
2021/11/20 02:19:04;;;;;;;61.63;28.77;;;;;;;;;;4975808;28;20042;-69
2021/11/20 02:21:45;;;;;;;62.53;26.80;;;;;;;;;;4976781;28;20093;-68
2021/11/20 02:24:10;;;;;;;59.92;27.75;;;;;;;;;;4975646;28;20042;-69
2021/11/20 02:29:11;;;;;;;62.75;30.02;;;;;;;;;;5000070;28;20384;-67
2021/11/20 02:32:03;;;;;;;67.13;30.70;;;;;;;;;;5002326;28;20205;-68
2021/11/20 02:34:30;;;;;;;68.57;30.98;;;;;;;;;;5003368;28;20037;-67
2021/11/20 02:36:55;;;;;;;69.97;30.75;;;;;;;;;;5010640;28;20067;-67
2021/11/20 02:39:22;;;;;;;66.22;30.02;;;;;;;;;;5002324;28;20470;-68
2021/11/20 02:41:49;;;;;;;64.25;26.92;;;;;;;;;;5001406;28;20030;-68
2021/11/20 02:44:15;;;;;;;66.22;30.23;;;;;;;;;;5003357;28;20493;-67
2021/11/20 02:46:46;;;;;;;58.78;26.55;;;;;;;;;;5002128;28;20052;-68
2021/11/20 02:49:12;;;;;;;63.05;29.65;;;;;;;;;;5000409;28;20470;-68
2021/11/20 02:51:41;;;;;;;68.25;30.23;;;;;;;;;;5000279;28;20335;-67
2021/11/20 02:54:14;;;;;;;62.25;28.98;;;;;;;;;;5000998;28;20021;-68
2021/11/20 02:56:41;;;;;;;64.60;28.63;;;;;;;;;;5005235;28;20021;-68
2021/11/20 02:59:07;;;;;;;73.50;28.83;;;;;;;;;;5000374;28;20044;-68
2021/11/20 03:01:35;;;;;;;62.50;28.98;;;;;;;;;;5004400;28;20546;-68
2021/11/20 03:04:00;;;;;;;75.55;31.17;;;;;;;;;;5001808;28;20025;-67
2021/11/20 03:06:25;;;;;;;74.68;31.35;;;;;;;;;;5005095;28;20370;-68
2021/11/20 03:08:50;;;;;;;62.50;28.63;;;;;;;;;;5000858;28;20026;-68
2021/11/20 03:11:16;;;;;;;70.43;28.85;;;;;;;;;;5004775;28;20436;-68
2021/11/20 03:13:42;;;;;;;67.13;28.67;;;;;;;;;;5000860;28;20453;-68
2021/11/20 03:16:08;;;;;;;59.97;29.63;;;;;;;;;;5001734;28;20030;-68
2021/11/20 03:18:34;;;;;;;70.82;29.90;;;;;;;;;;5004103;28;20018;-67
2021/11/20 03:20:59;;;;;;;66.93;30.52;;;;;;;;;;5009985;28;20030;-67
2021/11/20 03:23:26;;;;;;;69.00;30.75;;;;;;;;;;5004190;28;20026;-68
2021/11/20 03:25:51;;;;;;;84.20;32.13;;;;;;;;;;4997433;28;20018;-68
2021/11/20 03:28:17;;;;;;;71.20;30.45;;;;;;;;;;5003727;28;20031;-68
2021/11/20 03:30:43;;;;;;;67.85;28.52;;;;;;;;;;4999655;28;20123;-68
2021/11/20 03:33:08;;;;;;;70.10;30.20;;;;;;;;;;5000337;28;20378;-67
2021/11/20 03:35:34;;;;;;;72.28;30.02;;;;;;;;;;5001199;28;20451;-67
2021/11/20 03:37:59;;;;;;;65.95;28.33;;;;;;;;;;4999837;28;20072;-67
2021/11/20 03:40:25;;;;;;;72.75;28.85;;;;;;;;;;5003428;28;20123;-68
2021/11/20 03:42:50;;;;;;;69.68;31.13;;;;;;;;;;5003363;28;20172;-67
2021/11/20 03:45:16;;;;;;;78.65;31.92;;;;;;;;;;5010471;28;20028;-67
2021/11/20 03:47:41;;;;;;;66.80;27.70;;;;;;;;;;5006974;28;20022;-67
2021/11/20 03:50:09;;;;;;;78.03;29.65;;;;;;;;;;4997668;28;20025;-67
2021/11/20 03:52:34;;;;;;;74.15;31.45;;;;;;;;;;5000788;28;20029;-67
2021/11/20 03:54:59;;;;;;;79.28;30.83;;;;;;;;;;5000138;28;20452;-67
2021/11/20 03:57:24;;;;;;;84.45;31.13;;;;;;;;;;4997972;28;20185;-67
2021/11/20 03:59:50;;;;;;;77.78;31.00;;;;;;;;;;5001584;28;20030;-68
2021/11/20 04:02:15;;;;;;;74.88;31.23;;;;;;;;;;5004517;28;20030;-67
2021/11/20 04:04:41;;;;;;;75.88;30.52;;;;;;;;;;5004378;28;20014;-67
2021/11/20 04:07:06;;;;;;;76.63;30.50;;;;;;;;;;4999242;28;20101;-67
2021/11/20 04:09:31;;;;;;;67.28;27.80;;;;;;;;;;5002851;28;20109;-68
2021/11/20 04:11:56;;;;;;;73.03;30.52;;;;;;;;;;5000414;28;20497;-67
2021/11/20 04:14:22;;;;;;;79.13;29.30;;;;;;;;;;4999892;28;20498;-68
2021/11/20 04:16:48;;;;;;;78.88;31.40;;;;;;;;;;5001474;28;20066;-67
2021/11/20 04:19:13;;;;;;;71.32;29.48;;;;;;;;;;5000692;28;20390;-67
2021/11/20 04:21:38;;;;;;;79.82;29.77;;;;;;;;;;4999430;28;20108;-67
2021/11/20 04:24:05;;;;;;;75.75;31.33;;;;;;;;;;4998011;28;20412;-68
2021/11/20 04:26:30;;;;;;;71.72;31.30;;;;;;;;;;5002775;28;20022;-67
2021/11/20 04:28:56;;;;;;;73.20;28.85;;;;;;;;;;4998753;28;20070;-67
2021/11/20 04:31:22;;;;;;;74.03;31.33;;;;;;;;;;5001112;28;20053;-67
2021/11/20 04:33:49;;;;;;;76.97;30.00;;;;;;;;;;5000319;28;20018;-68
2021/11/20 04:36:15;;;;;;;74.38;30.08;;;;;;;;;;5001182;28;20076;-67
2021/11/20 04:38:40;;;;;;;75.85;30.85;;;;;;;;;;5001063;28;20018;-67
2021/11/20 04:41:06;;;;;;;77.07;29.30;;;;;;;;;;5005823;28;20248;-68
2021/11/20 04:43:32;;;;;;;73.93;29.55;;;;;;;;;;5004421;28;20700;-67
2021/11/20 04:45:57;;;;;;;67.63;29.98;;;;;;;;;;5005895;28;20029;-67
2021/11/20 04:48:22;;;;;;;72.18;29.52;;;;;;;;;;5004888;28;20026;-68
2021/11/20 04:50:49;;;;;;;69.40;28.83;;;;;;;;;;5006128;28;20030;-67
2021/11/20 04:53:15;;;;;;;71.03;29.77;;;;;;;;;;5001898;28;20022;-68
2021/11/20 04:55:40;;;;;;;67.75;28.75;;;;;;;;;;5003666;28;20022;-67
2021/11/20 04:58:05;;;;;;;64.10;28.63;;;;;;;;;;5004158;28;20018;-68
2021/11/20 05:00:32;;;;;;;62.20;26.33;;;;;;;;;;5002555;28;20033;-67
2021/11/20 05:02:59;;;;;;;64.53;25.48;;;;;;;;;;5003400;28;20108;-68
2021/11/20 05:05:24;;;;;;;64.50;26.70;;;;;;;;;;5003607;28;20496;-68
2021/11/20 05:07:50;;;;;;;62.42;26.75;;;;;;;;;;5002813;28;20033;-68
2021/11/20 05:10:15;;;;;;;62.60;25.50;;;;;;;;;;5008690;28;20157;-67
2021/11/20 05:12:41;;;;;;;63.65;26.80;;;;;;;;;;5008644;28;20045;-68
2021/11/20 05:15:07;;;;;;;60.83;23.55;;;;;;;;;;5003123;28;20031;-68
2021/11/20 05:17:33;;;;;;;65.70;27.50;;;;;;;;;;5002360;28;20036;-68
2021/11/20 05:19:58;;;;;;;63.37;25.37;;;;;;;;;;5006869;28;20025;-69
2021/11/20 05:22:23;;;;;;;54.83;25.10;;;;;;;;;;5001402;28;20301;-68
2021/11/20 05:24:48;;;;;;;60.10;24.55;;;;;;;;;;5003616;28;20026;-67
2021/11/20 05:27:14;;;;;;;52.67;24.25;;;;;;;;;;5003708;28;20119;-68
2021/11/20 05:29:48;;;;;;;50.83;24.52;;;;;;;;;;5003111;28;20355;-68
2021/11/20 05:32:14;;;;;;;57.70;25.08;;;;;;;;;;5006198;28;20022;-68
2021/11/20 05:34:39;;;;;;;51.40;24.30;;;;;;;;;;5006252;28;20239;-68
2021/11/20 05:37:04;;;;;;;51.00;23.20;;;;;;;;;;5002427;28;20025;-67
2021/11/20 05:39:31;;;;;;;53.15;24.38;;;;;;;;;;5002141;28;20331;-67
2021/11/20 05:41:56;;;;;;;59.03;25.52;;;;;;;;;;5000681;28;20022;-67
2021/11/20 05:44:22;;;;;;;52.65;23.60;;;;;;;;;;5000379;28;20026;-67
2021/11/20 05:46:47;;;;;;;54.23;23.57;;;;;;;;;;4999842;28;20032;-67
2021/11/20 05:49:12;;;;;;;59.78;24.92;;;;;;;;;;5000980;28;20358;-67
2021/11/20 05:51:37;;;;;;;52.33;24.65;;;;;;;;;;5000923;28;20113;-67
2021/11/20 05:54:04;;;;;;;63.00;24.67;;;;;;;;;;5002483;28;20014;-68
2021/11/20 05:56:29;;;;;;;59.95;23.63;;;;;;;;;;4998838;28;20398;-68
2021/11/20 05:58:55;;;;;;;53.33;23.65;;;;;;;;;;5000474;28;20026;-67
2021/11/20 06:01:20;;;;;;;52.60;24.90;;;;;;;;;;5000565;28;20028;-67
2021/11/20 06:03:45;;;;;;;49.97;23.70;;;;;;;;;;5000982;28;20473;-67
2021/11/20 06:06:11;;;;;;;61.10;26.25;;;;;;;;;;5001403;28;20288;-67
2021/11/20 06:08:36;;;;;;;55.80;24.67;;;;;;;;;;5001123;28;20029;-68
2021/11/20 06:11:03;;;;;;;54.28;24.60;;;;;;;;;;5000043;28;20394;-67
2021/11/20 06:13:29;;;;;;;55.60;24.70;;;;;;;;;;4998183;28;20493;-67
2021/11/20 06:15:54;;;;;;;51.08;24.10;;;;;;;;;;4999324;28;20636;-67
2021/11/20 06:18:20;;;;;;;52.88;23.88;;;;;;;;;;4999641;28;20018;-67
2021/11/20 06:20:46;;;;;;;47.70;22.77;;;;;;;;;;4999983;28;20216;-68
2021/11/20 06:23:11;;;;;;;55.03;23.40;;;;;;;;;;4999343;28;20041;-67
2021/11/20 06:25:37;;;;;;;54.67;23.17;;;;;;;;;;4999416;28;20038;-67
2021/11/20 06:28:02;;;;;;;50.42;23.30;;;;;;;;;;4999300;28;20030;-67
2021/11/20 06:30:27;;;;;;;51.08;23.05;;;;;;;;;;4997769;28;20382;-67
2021/11/20 06:32:53;;;;;;;50.22;23.35;;;;;;;;;;4999504;28;20025;-67
2021/11/20 06:35:20;;;;;;;46.88;21.95;;;;;;;;;;5002114;28;20470;-67
2021/11/20 06:37:46;;;;;;;52.50;23.30;;;;;;;;;;5002158;28;20045;-67
2021/11/20 06:40:13;;;;;;;52.72;23.13;;;;;;;;;;5000377;28;20026;-68
2021/11/20 06:42:38;;;;;;;51.67;23.10;;;;;;;;;;4999020;28;20061;-67
2021/11/20 06:45:07;;;;;;;52.40;23.77;;;;;;;;;;4997578;28;20462;-67
2021/11/20 06:47:32;;;;;;;57.58;22.90;;;;;;;;;;4997863;28;20084;-68
2021/11/20 06:49:58;;;;;;;50.72;23.02;;;;;;;;;;5003789;28;20026;-67
2021/11/20 06:52:23;;;;;;;55.22;23.98;;;;;;;;;;4998763;28;20104;-69
2021/11/20 06:54:49;;;;;;;51.50;22.20;;;;;;;;;;5000000;28;20157;-67
2021/11/20 06:57:15;;;;;;;52.53;23.42;;;;;;;;;;4999867;28;20462;-67
2021/11/20 07:02:06;;;;;;;45.50;21.03;;;;;;;;;;5000136;28;20088;-67
2021/11/20 07:04:31;;;;;;;51.78;22.98;;;;;;;;;;5000399;28;20276;-67
2021/11/20 07:06:58;;;;;;;44.60;21.35;;;;;;;;;;5001199;28;20032;-67
2021/11/20 07:09:24;;;;;;;49.88;21.30;;;;;;;;;;4999169;28;20034;-68
2021/11/20 07:11:50;;;;;;;50.67;24.27;;;;;;;;;;5000623;28;20479;-67
2021/11/20 07:14:15;;;;;;;49.45;21.08;;;;;;;;;;5000711;28;20276;-67
2021/11/20 07:16:41;;;;;;;49.20;21.00;;;;;;;;;;4997257;28;20105;-68
2021/11/20 07:19:06;;;;;;;55.63;25.02;;;;;;;;;;4999846;28;20470;-67
2021/11/20 07:21:31;;;;;;;52.70;23.02;;;;;;;;;;4997997;28;20470;-67
2021/11/20 07:23:58;;;;;;;50.78;22.00;;;;;;;;;;4995344;28;20421;-68
2021/11/20 07:26:24;;;;;;;60.30;23.20;;;;;;;;;;4998256;28;20030;-68
2021/11/20 07:28:50;;;;;;;48.00;22.40;;;;;;;;;;4996785;28;20022;-67
2021/11/20 07:31:15;;;;;;;45.53;21.00;;;;;;;;;;4997835;28;20034;-67
2021/11/20 07:33:41;;;;;;;50.78;22.35;;;;;;;;;;4999189;28;20578;-67
2021/11/20 07:36:07;;;;;;;47.28;21.83;;;;;;;;;;4999626;28;20025;-67
2021/11/20 07:38:34;;;;;;;48.83;22.40;;;;;;;;;;5000579;28;20037;-68
2021/11/20 07:40:59;;;;;;;51.40;21.23;;;;;;;;;;5001499;28;20034;-67
2021/11/20 07:43:25;;;;;;;52.83;21.27;;;;;;;;;;4998181;28;20487;-67
2021/11/20 07:45:51;;;;;;;45.13;20.80;;;;;;;;;;5001528;28;20411;-67
2021/11/20 07:48:18;;;;;;;44.95;20.05;;;;;;;;;;5003192;28;20030;-67
2021/11/20 07:50:44;;;;;;;47.20;21.20;;;;;;;;;;5004810;28;20030;-68
2021/11/20 07:53:10;;;;;;;51.17;22.55;;;;;;;;;;5001592;28;20068;-67
2021/11/20 07:55:35;;;;;;;40.17;19.27;;;;;;;;;;4999327;28;20053;-67
2021/11/20 07:58:00;;;;;;;45.63;19.95;;;;;;;;;;5000116;28;20018;-67
2021/11/20 08:00:27;;;;;;;44.97;20.48;;;;;;;;;;5002395;28;20033;-68
2021/11/20 08:02:52;;;;;;;50.88;21.00;;;;;;;;;;5006751;28;20109;-67
2021/11/20 08:05:18;;;;;;;44.75;20.63;;;;;;;;;;5004870;28;20136;-68
2021/11/20 08:07:43;;;;;;;49.70;21.42;;;;;;;;;;4999340;28;20040;-67
2021/11/20 08:10:10;;;;;;;44.28;21.10;;;;;;;;;;4998876;28;20478;-67
2021/11/20 08:12:35;;;;;;;46.70;19.38;;;;;;;;;;5004349;28;20026;-67
2021/11/20 08:15:01;;;;;;;46.28;20.65;;;;;;;;;;5003781;28;20075;-67
2021/11/20 08:17:26;;;;;;;44.08;21.05;;;;;;;;;;5004375;28;20033;-67
2021/11/20 08:19:51;;;;;;;39.30;18.95;;;;;;;;;;5005004;28;20096;-67
2021/11/20 08:22:16;;;;;;;41.80;19.65;;;;;;;;;;5007234;28;20061;-67
2021/11/20 08:24:42;;;;;;;40.35;18.60;;;;;;;;;;5002109;28;20497;-67
2021/11/20 08:27:09;;;;;;;45.13;19.60;;;;;;;;;;5006420;28;20026;-68
2021/11/20 08:29:37;;;;;;;42.63;17.90;;;;;;;;;;5008691;28;20018;-67
2021/11/20 08:32:04;;;;;;;40.88;18.33;;;;;;;;;;5004109;28;20109;-67
2021/11/20 08:34:30;;;;;;;42.17;18.20;;;;;;;;;;5004972;28;20371;-68
2021/11/20 08:36:55;;;;;;;46.38;20.45;;;;;;;;;;5003875;28;20445;-68
2021/11/20 08:39:20;;;;;;;41.83;19.88;;;;;;;;;;5004567;28;20037;-67
2021/11/20 08:41:46;;;;;;;39.63;18.40;;;;;;;;;;5008792;28;20100;-67
2021/11/20 08:44:12;;;;;;;39.95;17.45;;;;;;;;;;5008371;28;20071;-67
2021/11/20 08:46:38;;;;;;;46.85;21.00;;;;;;;;;;5005533;28;20402;-68
2021/11/20 08:49:04;;;;;;;41.30;20.35;;;;;;;;;;5003809;28;20064;-68
2021/11/20 08:51:30;;;;;;;47.22;21.00;;;;;;;;;;5006402;28;20269;-67
2021/11/20 08:53:55;;;;;;;45.13;21.30;;;;;;;;;;5006773;28;20022;-68
2021/11/20 08:56:21;;;;;;;46.92;19.73;;;;;;;;;;5009427;28;20475;-67
2021/11/20 08:58:47;;;;;;;54.47;20.92;;;;;;;;;;5004033;28;20022;-67
2021/11/20 09:01:17;;;;;;;47.85;21.77;;;;;;;;;;5005275;28;20030;-67
2021/11/20 09:04:03;;;;;;;49.85;22.60;;;;;;;;;;5009576;28;20025;-67
2021/11/20 09:06:34;;;;;;;50.67;22.23;;;;;;;;;;5017889;28;20121;-67
2021/11/20 09:09:05;;;;;;;45.85;20.15;;;;;;;;;;5011292;28;20018;-67
2021/11/20 09:11:34;;;;;;;45.53;21.55;;;;;;;;;;5011581;28;20021;-67
2021/11/20 09:14:18;;;;;;;48.42;21.73;;;;;;;;;;5011928;28;20101;-68
2021/11/20 09:16:43;;;;;;;48.25;22.73;;;;;;;;;;5004069;28;20049;-67
2021/11/20 09:19:10;;;;;;;47.90;20.33;;;;;;;;;;5010376;28;20026;-67
2021/11/20 09:21:36;;;;;;;46.78;21.30;;;;;;;;;;5012784;28;20037;-67
2021/11/20 09:24:01;;;;;;;50.63;22.50;;;;;;;;;;5010120;28;20402;-67
2021/11/20 09:26:27;;;;;;;53.85;21.83;;;;;;;;;;5012566;28;20053;-68
2021/11/20 09:28:54;;;;;;;48.13;20.27;;;;;;;;;;5011879;28;20033;-68
2021/11/20 09:31:20;;;;;;;51.10;24.48;;;;;;;;;;5009521;28;20408;-67
2021/11/20 09:33:45;;;;;;;51.42;22.33;;;;;;;;;;5011293;28;20022;-68
2021/11/20 09:36:10;;;;;;;54.33;23.27;;;;;;;;;;5011412;28;20041;-68
2021/11/20 09:38:36;;;;;;;48.00;22.33;;;;;;;;;;5012220;28;20641;-68
2021/11/20 09:41:04;;;;;;;49.13;21.08;;;;;;;;;;5011088;28;20018;-68
2021/11/20 09:43:32;;;;;;;49.35;21.00;;;;;;;;;;5012160;28;20050;-68
2021/11/20 09:46:17;;;;;;;49.50;22.35;;;;;;;;;;5010672;28;20022;-68
2021/11/20 09:48:45;;;;;;;48.75;21.50;;;;;;;;;;5011045;28;20034;-68
2021/11/20 09:51:13;;;;;;;44.53;21.33;;;;;;;;;;5012562;28;20391;-68
2021/11/20 09:53:39;;;;;;;48.00;21.60;;;;;;;;;;5012208;28;20014;-68
2021/11/20 09:56:06;;;;;;;41.88;20.60;;;;;;;;;;5008918;28;20378;-68
2021/11/20 09:58:34;;;;;;;35.78;17.23;;;;;;;;;;5007182;28;20433;-68
2021/11/20 10:00:59;;;;;;;42.45;18.50;;;;;;;;;;5005556;28;20053;-68
2021/11/20 10:03:44;;;;;;;41.65;18.10;;;;;;;;;;5012653;28;20418;-67
2021/11/20 10:06:12;;;;;;;37.20;16.90;;;;;;;;;;5011213;28;20061;-68
2021/11/20 10:08:39;;;;;;;32.55;16.65;;;;;;;;;;5007008;28;20029;-68
2021/11/20 10:11:08;;;;;;;35.28;16.80;;;;;;;;;;5009686;28;20114;-68
2021/11/20 10:13:44;;;;;;;35.20;17.20;;;;;;;;;;5008796;28;20493;-67
2021/11/20 10:16:13;;;;;;;34.05;14.27;;;;;;;;;;5011379;28;20025;-68
2021/11/20 10:18:51;;;;;;;36.15;16.80;;;;;;;;;;5008567;28;20025;-68
2021/11/20 10:21:28;;;;;;;33.35;16.23;;;;;;;;;;5007612;28;20026;-67
2021/11/20 10:24:08;;;;;;;35.75;18.17;;;;;;;;;;5003653;28;20081;-67
2021/11/20 10:26:42;;;;;;;37.03;17.55;;;;;;;;;;5006539;28;20026;-67
2021/11/20 10:29:08;;;;;;;36.45;16.17;;;;;;;;;;5010749;28;20044;-67
2021/11/20 10:31:39;;;;;;;36.00;16.37;;;;;;;;;;5005747;28;20025;-66
2021/11/20 10:34:06;;;;;;;37.90;18.10;;;;;;;;;;5011284;28;20737;-66
2021/11/20 10:36:34;;;;;;;35.25;18.83;;;;;;;;;;5001472;28;20027;-66
2021/11/20 10:38:59;;;;;;;40.88;17.95;;;;;;;;;;5003034;28;20022;-66
2021/11/20 10:41:33;;;;;;;37.58;18.02;;;;;;;;;;5011517;28;20371;-66
2021/11/20 10:44:08;;;;;;;35.92;17.02;;;;;;;;;;5005776;28;20045;-66
2021/11/20 10:46:35;;;;;;;37.17;18.05;;;;;;;;;;5011350;28;20103;-66
2021/11/20 10:49:09;;;;;;;25.25;11.85;;;;;;;;;;5009537;28;20167;-67
2021/11/20 10:51:43;;;;;;;34.33;17.60;;;;;;;;;;5010753;28;20018;-66
2021/11/20 10:54:20;;;;;;;37.63;18.02;;;;;;;;;;5006799;28;20022;-66
2021/11/20 10:56:51;;;;;;;41.25;18.55;;;;;;;;;;5000996;28;20030;-66
2021/11/20 10:59:35;;;;;;;31.23;16.98;;;;;;;;;;5010308;28;20014;-66
2021/11/20 11:02:19;;;;;;;32.42;16.08;;;;;;;;;;5004009;28;20041;-66
2021/11/20 11:04:56;;;;;;;29.42;15.18;;;;;;;;;;5009880;28;20414;-68
2021/11/20 11:07:32;;;;;;;33.95;16.70;;;;;;;;;;4996924;28;20054;-66
2021/11/20 11:10:08;;;;;;;32.35;15.32;;;;;;;;;;5010337;28;20105;-66
2021/11/20 11:12:49;;;;;;;28.55;12.82;;;;;;;;;;5010058;28;20049;-66
2021/11/20 11:15:15;;;;;;;34.35;16.88;;;;;;;;;;5010935;28;20531;-66
2021/11/20 11:17:58;;;;;;;36.25;17.35;;;;;;;;;;5004925;28;20105;-66
2021/11/20 11:20:23;;;;;;;35.72;15.52;;;;;;;;;;5010722;28;20022;-67
2021/11/20 11:22:53;;;;;;;37.23;16.60;;;;;;;;;;5009665;28;20036;-66
2021/11/20 11:25:21;;;;;;;35.45;16.25;;;;;;;;;;5010763;28;20287;-66
2021/11/20 11:27:56;;;;;;;34.28;15.35;;;;;;;;;;5008774;28;20022;-66
2021/11/20 11:30:24;;;;;;;32.13;16.63;;;;;;;;;;5005255;28;20476;-66
2021/11/20 11:32:50;;;;;;;38.30;17.40;;;;;;;;;;5009256;28;20070;-66
2021/11/20 11:35:19;;;;;;;29.38;14.90;;;;;;;;;;5010198;28;20053;-66
2021/11/20 11:38:02;;;;;;;37.10;15.85;;;;;;;;;;5008345;28;20029;-66
2021/11/20 11:40:46;;;;;;;33.92;17.08;;;;;;;;;;5010704;28;20390;-66
2021/11/20 11:43:20;;;;;;;36.20;17.05;;;;;;;;;;5009221;28;20022;-67
2021/11/20 11:45:48;;;;;;;36.60;17.10;;;;;;;;;;5008994;28;20034;-67
2021/11/20 11:48:25;;;;;;;34.17;17.30;;;;;;;;;;5002732;28;20512;-67
2021/11/20 11:50:54;;;;;;;35.65;18.10;;;;;;;;;;5008290;28;20493;-67
2021/11/20 11:53:37;;;;;;;40.97;19.30;;;;;;;;;;5009321;28;20026;-66
2021/11/20 11:56:04;;;;;;;35.88;17.98;;;;;;;;;;5010285;28;20018;-66
2021/11/20 11:58:33;;;;;;;31.58;16.30;;;;;;;;;;5006409;28;20040;-66
2021/11/20 12:01:09;;;;;;;31.80;14.93;;;;;;;;;;5005768;28;20083;-67
2021/11/20 12:03:39;;;;;;;34.72;16.98;;;;;;;;;;5008572;28;20053;-67
2021/11/20 12:06:12;;;;;;;36.75;18.02;;;;;;;;;;5009886;28;20026;-67
2021/11/20 12:08:45;;;;;;;38.28;18.92;;;;;;;;;;5007799;28;20030;-66
2021/11/20 12:11:31;;;;;;;37.65;17.30;;;;;;;;;;5008817;28;20029;-67
2021/11/20 12:14:14;;;;;;;35.72;17.83;;;;;;;;;;5008897;28;20025;-67
2021/11/20 12:16:52;;;;;;;32.47;16.70;;;;;;;;;;5008863;28;20086;-67
2021/11/20 12:19:36;;;;;;;33.75;16.77;;;;;;;;;;5005289;28;20014;-67
2021/11/20 12:22:04;;;;;;;34.60;17.20;;;;;;;;;;5007944;28;20029;-67
2021/11/20 12:24:39;;;;;;;34.72;17.85;;;;;;;;;;5008542;28;20033;-67
2021/11/20 12:27:07;;;;;;;39.40;19.50;;;;;;;;;;5008011;28;20080;-67
2021/11/20 12:30:01;;;;;;;43.28;18.08;;;;;;;;;;5008750;28;20017;-67
2021/11/20 12:32:45;;;;;;;37.05;18.30;;;;;;;;;;4971981;28;20086;-67
2021/11/20 12:35:11;;;;;;;39.33;18.90;;;;;;;;;;5010349;28;20474;-67
2021/11/20 12:37:48;;;;;;;38.03;17.95;;;;;;;;;;5008495;28;20033;-67
2021/11/20 12:40:22;;;;;;;41.85;17.42;;;;;;;;;;5010052;28;20018;-67
2021/11/20 12:43:07;;;;;;;38.63;17.80;;;;;;;;;;5007632;28;20105;-67
2021/11/20 12:45:38;;;;;;;41.70;19.73;;;;;;;;;;5010140;28;20088;-67
2021/11/20 12:48:20;;;;;;;39.33;17.20;;;;;;;;;;5009815;28;20030;-67
2021/11/20 12:50:51;;;;;;;38.97;18.30;;;;;;;;;;5002612;28;20116;-67
2021/11/20 12:53:22;;;;;;;36.13;17.70;;;;;;;;;;5002816;28;20044;-67
2021/11/20 12:56:05;;;;;;;35.03;16.15;;;;;;;;;;5006673;28;20664;-67
2021/11/20 12:58:33;;;;;;;33.67;16.77;;;;;;;;;;4999140;28;20030;-67
2021/11/20 13:00:58;;;;;;;28.67;11.88;;;;;;;;;;5004569;28;20474;-67
2021/11/20 13:03:28;;;;;;;33.88;17.20;;;;;;;;;;5004343;28;20039;-67
2021/11/20 13:06:02;;;;;;;32.78;15.68;;;;;;;;;;5002692;28;20026;-67
2021/11/20 13:08:29;;;;;;;25.88;10.05;;;;;;;;;;5005854;28;20104;-67
2021/11/20 13:11:00;;;;;;;31.40;14.85;;;;;;;;;;5008003;28;20021;-67
2021/11/20 13:13:28;;;;;;;27.60;12.13;;;;;;;;;;5005672;28;20064;-67
2021/11/20 13:15:56;;;;;;;38.75;16.10;;;;;;;;;;5004850;28;20093;-67
2021/11/20 13:18:55;;;;;;;35.88;16.88;;;;;;;;;;5005334;28;20026;-67
2021/11/20 13:21:32;;;;;;;37.65;17.33;;;;;;;;;;4992250;28;20034;-67
2021/11/20 13:24:05;;;;;;;32.45;15.20;;;;;;;;;;5005807;28;20128;-67
2021/11/20 13:26:30;;;;;;;34.22;16.15;;;;;;;;;;5005451;28;20025;-67
2021/11/20 13:28:57;;;;;;;33.95;16.50;;;;;;;;;;5007387;28;20037;-67
2021/11/20 13:31:30;;;;;;;34.58;17.17;;;;;;;;;;5002695;28;20025;-67
2021/11/20 13:33:56;;;;;;;30.40;15.32;;;;;;;;;;5004303;28;20045;-67
2021/11/20 13:36:21;;;;;;;37.13;17.10;;;;;;;;;;5006101;28;20379;-67
2021/11/20 13:38:46;;;;;;;46.13;18.33;;;;;;;;;;5003427;28;20366;-67
2021/11/20 13:41:11;;;;;;;35.92;17.33;;;;;;;;;;5004456;28;20280;-67
2021/11/20 13:43:38;;;;;;;41.38;19.50;;;;;;;;;;5009985;28;20560;-67
2021/11/20 13:46:08;;;;;;;35.25;16.33;;;;;;;;;;5012497;28;20018;-66
2021/11/20 13:48:34;;;;;;;35.65;17.10;;;;;;;;;;5003900;28;20068;-66
2021/11/20 13:51:01;;;;;;;35.50;16.85;;;;;;;;;;5004483;28;20500;-66
2021/11/20 13:53:33;;;;;;;34.95;17.02;;;;;;;;;;5010105;28;20072;-66
2021/11/20 13:56:03;;;;;;;35.78;17.67;;;;;;;;;;5006609;28;20021;-68
2021/11/20 13:58:30;;;;;;;37.72;18.60;;;;;;;;;;5008906;28;20041;-68
2021/11/20 14:00:58;;;;;;;34.20;16.50;;;;;;;;;;5009699;28;20038;-68
2021/11/20 14:03:24;;;;;;;35.50;17.90;;;;;;;;;;5011753;28;20386;-68
2021/11/20 14:05:49;;;;;;;35.63;16.17;;;;;;;;;;5011227;28;20033;-68
2021/11/20 14:08:17;;;;;;;35.92;16.55;;;;;;;;;;5010893;28;20022;-68
2021/11/20 14:10:43;;;;;;;36.45;15.38;;;;;;;;;;5010665;28;20049;-68
2021/11/20 14:15:44;;;;;;;32.08;16.08;;;;;;;;;;5006371;28;20164;-68
2021/11/20 14:18:10;;;;;;;33.00;14.43;;;;;;;;;;5009086;28;20022;-68
2021/11/20 14:20:43;;;;;;;33.17;16.23;;;;;;;;;;5011456;28;20036;-68
2021/11/20 14:23:10;;;;;;;34.30;16.88;;;;;;;;;;5005299;28;20053;-68
2021/11/20 14:25:36;;;;;;;33.40;17.27;;;;;;;;;;5010916;28;20459;-68
2021/11/20 14:28:02;;;;;;;34.38;15.00;;;;;;;;;;5003108;28;20026;-68
2021/11/20 14:30:28;;;;;;;30.75;16.42;;;;;;;;;;5006051;28;20437;-68